Ambridge, PA (15003)

12:30 AM EST on November 23, 2017 (GMT -0500)
Ambridge Historic District | | Change Station

Elev 751 ft 40.60 °N, 80.23 °W | Updated 1 second ago

Overcast
Overcast
27.5 °F
Feels Like 28 °F
N
0.0
Wind Variable Wind from ESE
Gusts 0.0 mph

Today
High -- | Low -- °F
--% Chance of Precip.
Yesterday
High -- | Low -- °F
Precip. -- in
Pressure 30.26 in
Visibility 10.0 miles
Clouds Scattered Clouds 3700 ft
Windchill 28 °F
Dew Point 23 °F
Humidity 83%
Rainfall 0.00 in
Snow Depth Not available.
7:16 AM 4:57 PM
Waxing Crescent, 19% visible
METAR KPIT 230451Z 26004KT 10SM SCT037 M02/M06 A3020 RMK AO2 SLP246 T10171056 400831022 $
Pressure 30.26 in
Visibility 10.0 miles
Clouds Scattered Clouds 3700 ft
Windchill 28 °F
Dew Point 23 °F
Humidity 83%
Rainfall 0.00 in
Snow Depth Not available.
7:16 AM 4:57 PM
Waxing Crescent, 19% visible
METAR KPIT 230451Z 26004KT 10SM SCT037 M02/M06 A3020 RMK AO2 SLP246 T10171056 400831022 $

Get Severe Weather Alerts

Thanks for signing up!

Be on the lookout for a verification email in your inbox.

You'll start receiving the daily forecast at 6 AM.

×

10-Day Weather Forecast

Almanac

Astronomy

Nov. 23, 2017 Rise Set
Actual Time
Civil Twilight
Nautical Twilight
Astronomical Twilight
Moon
Length of Visible Light
Length of Day
Tomorrow will be .
, % of the Moon is Illuminated

Today's Extremes

State Highs State Lows

Community

WunderPhotos

Category 6

Welcome to Category 6. This is the collective home for Weather Underground's featured writeups by Dr. Jeff Masters (right), Bob Henson (left), Chris Burt, and other regular contributors.

Nearby

Air Quality

  Air Quality AQ Index Pollutant
Not available.

Snow Depth

Station Depth Elevation

Earthquake Activity

City Distance Mag. Time & Date
Minimum magnitude displayed is 2.5.

Coastal Water Temperatures

Place Temperature

Stations

Nearby Weather Stations

Station Location Temp. Windchill Dew Point Humidity Wind Precip. Elev Updated Type
                   

Watches & Warnings

There are currently no watches in effect.